Time;durP1;ratioP1;P1;durP2;ratioP2;P2;SDS_P1;SDS_P2;PMS_P1;PMS_P2;Temp;Humidity;BMP_temperature;BMP_pressure;BME280_temperature;BME280_humidity;BME280_pressure;Samples;Min_cycle;Max_cycle;Signal;HPM_P1;HPM_P2
2022/06/30 00:01:44;;;;;;;6.40;5.90;;;;;;;23.08;60.10;98406.97;6977122;28;20208;-80
2022/06/30 00:05:07;;;;;;;6.23;5.33;;;;;;;23.72;58.38;98409.94;6977369;28;20398;-81
2022/06/30 00:08:28;;;;;;;5.93;5.50;;;;;;;23.80;57.89;98381.75;6976807;28;20213;-81
2022/06/30 00:11:50;;;;;;;9.47;5.87;;;;;;;23.84;57.58;98404.78;6977095;28;20383;-80
2022/06/30 00:15:13;;;;;;;7.17;5.93;;;;;;;23.62;58.58;98390.00;6977049;28;20206;-81
2022/06/30 00:18:35;;;;;;;6.90;5.80;;;;;;;23.77;57.60;98389.78;6976871;28;20235;-81
2022/06/30 00:21:56;;;;;;;7.50;6.13;;;;;;;23.32;58.79;98399.53;6976469;28;20709;-80
2022/06/30 00:25:18;;;;;;;7.13;6.33;;;;;;;23.59;58.66;98398.88;6975153;28;20297;-81
2022/06/30 00:28:40;;;;;;;5.90;5.50;;;;;;;23.77;58.26;98404.34;6975047;28;20210;-80
2022/06/30 00:32:03;;;;;;;7.20;5.77;;;;;;;23.48;58.62;98398.19;6976835;28;20235;-81
2022/06/30 00:35:25;;;;;;;8.73;6.27;;;;;;;23.48;58.41;98362.41;6954533;28;20270;-80
2022/06/30 00:38:46;;;;;;;8.20;5.53;;;;;;;23.61;58.14;98393.88;6948676;28;20575;-80
2022/06/30 00:42:08;;;;;;;7.00;5.97;;;;;;;23.33;58.95;98383.84;6949226;28;20296;-80
2022/06/30 00:45:30;;;;;;;8.60;6.33;;;;;;;23.27;59.39;98390.53;6948858;28;20221;-80
2022/06/30 00:48:53;;;;;;;7.80;6.13;;;;;;;23.17;59.69;98390.66;6948560;28;20685;-81
2022/06/30 00:52:16;;;;;;;6.43;5.83;;;;;;;23.05;59.73;98377.31;6947797;28;20219;-80
2022/06/30 00:55:40;;;;;;;6.20;5.50;;;;;;;23.47;58.15;98380.03;6947493;28;20755;-81
2022/06/30 00:59:04;;;;;;;8.00;5.70;;;;;;;23.67;57.70;98392.69;6946675;28;20315;-81
2022/06/30 01:02:26;;;;;;;9.67;5.83;;;;;;;23.46;57.53;98392.19;6948411;28;20259;-80
2022/06/30 01:05:49;;;;;;;6.83;5.93;;;;;;;23.18;58.94;98378.56;6948364;28;20490;-78
2022/06/30 01:09:11;;;;;;;7.13;6.43;;;;;;;23.31;59.55;98389.63;6947963;28;20240;-81
2022/06/30 01:16:08;;;;;;;7.90;6.77;;;;;;;22.91;60.01;98378.34;6946624;28;20346;-80
2022/06/30 01:19:29;;;;;;;7.00;6.30;;;;;;;23.15;59.76;98381.88;6947954;28;20215;-80
2022/06/30 01:22:52;;;;;;;8.50;6.07;;;;;;;23.13;58.75;98340.09;6948079;28;20643;-81
2022/06/30 01:26:14;;;;;;;6.57;5.73;;;;;;;23.31;57.81;98355.81;6947666;28;20672;-81
2022/06/30 01:29:35;;;;;;;7.53;6.83;;;;;;;23.16;58.28;98362.34;6947099;28;20293;-81
2022/06/30 01:32:57;;;;;;;6.63;5.93;;;;;;;23.05;59.33;98371.81;6947832;28;20666;-80
2022/06/30 01:36:19;;;;;;;7.13;6.43;;;;;;;22.95;59.58;98365.66;6947657;28;20353;-81
2022/06/30 01:39:42;;;;;;;7.17;6.47;;;;;;;22.97;59.33;98364.25;6947234;28;20204;-81
2022/06/30 01:43:06;;;;;;;6.63;6.13;;;;;;;22.88;59.97;98366.00;6956262;28;20243;-81
2022/06/30 01:46:27;;;;;;;7.40;6.60;;;;;;;22.48;60.21;98324.47;6975833;28;20200;-81
2022/06/30 01:49:49;;;;;;;7.90;6.40;;;;;;;22.79;60.48;98345.78;6956795;28;20284;-81
2022/06/30 01:53:10;;;;;;;8.83;8.13;;;;;;;22.77;61.13;98363.69;6947242;28;20253;-81
2022/06/30 01:56:33;;;;;;;8.20;7.57;;;;;;;22.63;61.48;98355.31;6947501;28;20231;-81
2022/06/30 01:59:55;;;;;;;7.97;7.00;;;;;;;22.63;61.30;98362.75;6947116;28;20232;-80
2022/06/30 02:03:16;;;;;;;9.07;7.60;;;;;;;22.78;61.16;98357.06;6947549;28;20282;-80
2022/06/30 02:06:38;;;;;;;7.97;7.20;;;;;;;22.72;60.92;98356.28;6947392;28;20265;-80
2022/06/30 02:09:59;;;;;;;8.37;7.53;;;;;;;22.46;62.18;98352.22;6947018;28;20306;-80
2022/06/30 02:13:22;;;;;;;8.03;7.23;;;;;;;22.70;61.18;98335.72;6952456;28;20236;-81
2022/06/30 02:16:44;;;;;;;7.30;6.60;;;;;;;22.95;60.64;98352.69;6952575;28;20257;-80
2022/06/30 02:20:08;;;;;;;8.23;6.70;;;;;;;22.50;58.95;98231.56;6952435;28;20212;-81
2022/06/30 02:23:30;;;;;;;8.03;7.33;;;;;;;23.04;59.76;98350.13;6952382;28;20233;-80
2022/06/30 02:26:51;;;;;;;10.00;6.93;;;;;;;22.97;59.75;98347.75;6952188;28;20276;-80
2022/06/30 02:30:15;;;;;;;8.30;7.60;;;;;;;22.79;60.15;98337.53;6951558;28;20231;-81
2022/06/30 02:33:37;;;;;;;8.70;7.90;;;;;;;23.00;60.43;98349.88;6952106;28;20402;-80
2022/06/30 02:36:58;;;;;;;7.40;6.70;;;;;;;22.90;60.22;98352.75;6952861;28;20227;-80
2022/06/30 02:40:21;;;;;;;7.43;6.67;;;;;;;22.74;60.25;98358.75;6955100;28;20216;-81
2022/06/30 02:43:42;;;;;;;8.40;7.73;;;;;;;22.29;62.05;98357.31;6952733;28;20232;-80
2022/06/30 02:47:05;;;;;;;8.47;7.67;;;;;;;22.60;61.53;98353.16;6953213;28;20215;-80
2022/06/30 02:50:27;;;;;;;9.13;7.50;;;;;;;22.72;61.26;98355.50;6956801;28;20207;-80
2022/06/30 02:53:49;;;;;;;9.07;8.27;;;;;;;22.76;60.37;98357.34;6960708;28;20228;-80
2022/06/30 02:57:10;;;;;;;9.17;7.50;;;;;;;22.67;60.95;98355.56;6960047;28;20227;-80
2022/06/30 03:00:32;;;;;;;8.57;7.67;;;;;;;23.00;60.16;98358.13;6961348;28;20210;-81
2022/06/30 03:03:55;;;;;;;8.50;7.60;;;;;;;22.82;59.74;98356.19;6965431;28;20228;-80
2022/06/30 03:07:16;;;;;;;8.37;7.43;;;;;;;22.68;60.44;98346.19;6961872;28;20258;-81
2022/06/30 03:10:38;;;;;;;10.03;8.20;;;;;;;22.74;60.05;98358.75;6957705;28;20211;-80
2022/06/30 03:13:59;;;;;;;7.70;7.00;;;;;;;22.77;59.79;98355.44;6953911;28;20705;-81
2022/06/30 03:17:21;;;;;;;8.77;7.37;;;;;;;22.84;59.34;98362.19;6953136;28;20308;-82
2022/06/30 03:20:44;;;;;;;9.20;8.30;;;;;;;22.29;59.71;98360.06;6957910;28;20195;-80
2022/06/30 03:24:13;;;;;;;10.97;8.87;;;;;;;21.43;62.91;98358.38;6969298;28;20226;-81
2022/06/30 03:27:44;;;;;;;9.70;8.67;;;;;;;22.00;62.48;98350.19;6978388;28;20209;-81
2022/06/30 03:31:06;;;;;;;8.57;7.87;;;;;;;22.09;61.42;98330.09;6976544;28;20191;-81
2022/06/30 03:34:28;;;;;;;7.57;6.80;;;;;;;22.58;59.64;98368.28;6965360;28;20228;-80
2022/06/30 03:37:51;;;;;;;9.73;8.13;;;;;;;22.25;60.26;98374.69;6959460;28;20324;-80
2022/06/30 03:41:13;;;;;;;9.00;8.23;;;;;;;21.73;61.37;98315.03;6952077;28;20211;-80
2022/06/30 03:44:34;;;;;;;8.90;8.00;;;;;;;22.35;60.84;98358.91;6969903;28;20230;-80
2022/06/30 03:47:56;;;;;;;9.03;8.13;;;;;;;22.35;60.94;98363.56;6984102;28;20210;-80
2022/06/30 03:51:18;;;;;;;9.00;8.10;;;;;;;22.36;61.37;98324.03;6960525;28;20188;-80
2022/06/30 03:54:41;;;;;;;8.70;8.00;;;;;;;22.63;61.13;98344.34;6951094;28;20321;-80
2022/06/30 03:58:03;;;;;;;9.37;8.40;;;;;;;22.77;61.05;98355.44;6950255;28;20227;-80
2022/06/30 04:01:24;;;;;;;9.03;8.33;;;;;;;22.61;60.88;98329.25;6951659;28;20298;-80
2022/06/30 04:04:46;;;;;;;8.50;7.57;;;;;;;22.97;59.72;98342.25;6951606;28;20309;-80
2022/06/30 04:08:07;;;;;;;9.07;8.17;;;;;;;22.81;60.59;98321.56;6950715;28;20273;-80
2022/06/30 04:11:30;;;;;;;8.93;8.03;;;;;;;22.41;60.97;98282.75;6952228;28;20210;-81
2022/06/30 04:14:52;;;;;;;8.77;7.97;;;;;;;22.36;62.85;98348.75;6954629;28;20698;-80
2022/06/30 04:18:13;;;;;;;8.77;7.97;;;;;;;22.76;61.58;98340.88;6949480;28;20318;-80
2022/06/30 04:21:35;;;;;;;8.70;7.90;;;;;;;22.35;61.93;98336.09;6950755;28;20240;-81
2022/06/30 04:24:56;;;;;;;8.03;7.33;;;;;;;22.49;62.10;98346.13;6950089;28;20203;-81
2022/06/30 04:28:19;;;;;;;8.30;7.50;;;;;;;22.65;61.69;98325.59;6949811;28;20218;-81
2022/06/30 04:35:21;;;;;;;8.80;8.00;;;;;;;23.10;61.21;98341.50;6946945;28;20193;-81
2022/06/30 04:38:43;;;;;;;10.23;7.27;;;;;;;23.06;60.59;98351.44;6958568;28;20240;-80
2022/06/30 04:42:05;;;;;;;8.67;7.77;;;;;;;23.01;61.10;98354.28;6976393;28;20219;-81
2022/06/30 04:45:28;;;;;;;9.20;8.40;;;;;;;23.10;60.87;98347.00;6976891;28;20288;-80
2022/06/30 04:48:50;;;;;;;8.17;7.33;;;;;;;23.08;61.32;98346.47;6976918;28;20311;-81
2022/06/30 04:52:11;;;;;;;7.80;6.97;;;;;;;23.54;60.01;98336.44;6976964;28;20234;-80
2022/06/30 04:55:33;;;;;;;7.80;6.93;;;;;;;24.04;58.99;98351.34;6968953;28;20245;-81
2022/06/30 04:58:56;;;;;;;7.83;7.10;;;;;;;24.07;58.47;98342.47;6962806;28;20698;-80
2022/06/30 05:02:19;;;;;;;8.57;7.77;;;;;;;24.41;57.98;98332.72;6973985;28;20230;-80
2022/06/30 05:05:40;;;;;;;7.90;6.70;;;;;;;24.73;56.77;98329.88;6974847;28;20199;-80
2022/06/30 05:09:02;;;;;;;6.60;6.10;;;;;;;24.89;56.64;98319.34;6975754;28;20211;-80
2022/06/30 05:12:23;;;;;;;6.87;6.27;;;;;;;25.41;55.73;98316.78;6975756;28;20234;-80
2022/06/30 05:15:45;;;;;;;7.33;6.63;;;;;;;26.04;54.18;98324.91;6962474;28;20280;-80
2022/06/30 05:19:08;;;;;;;6.97;6.10;;;;;;;26.22;53.24;98315.56;6969428;28;20366;-80
2022/06/30 05:22:30;;;;;;;6.47;5.73;;;;;;;26.20;53.15;98329.69;6975617;28;20293;-80
2022/06/30 05:29:30;;;;;;;8.70;6.00;;;;;;;26.68;52.22;98338.91;6975273;28;20201;-79
2022/06/30 05:32:52;;;;;;;6.73;5.40;;;;;;;26.47;51.93;98315.69;6991690;28;20432;-80
2022/06/30 05:36:15;;;;;;;6.33;5.50;;;;;;;26.76;51.80;98338.09;6986303;28;20255;-79
2022/06/30 05:39:36;;;;;;;7.53;5.70;;;;;;;26.97;51.49;98322.56;6976350;28;20229;-79
2022/06/30 05:42:58;;;;;;;6.43;5.10;;;;;;;27.60;49.47;98319.22;6976486;28;20228;-79
2022/06/30 05:46:19;;;;;;;5.80;5.10;;;;;;;27.79;49.37;98308.63;6977494;28;20268;-79
2022/06/30 05:49:41;;;;;;;5.27;4.73;;;;;;;28.24;48.32;98329.25;6978386;28;20206;-79
2022/06/30 05:53:04;;;;;;;5.47;4.73;;;;;;;28.96;46.52;98329.94;6977348;28;20261;-80
2022/06/30 05:56:25;;;;;;;6.13;5.00;;;;;;;29.62;43.68;98312.34;6976219;28;20292;-79
2022/06/30 05:59:47;;;;;;;5.67;4.43;;;;;;;29.98;43.15;98312.47;6975814;28;20253;-80
2022/06/30 06:03:09;;;;;;;5.53;5.10;;;;;;;28.78;45.93;98301.44;6976721;28;20218;-80
2022/06/30 06:06:30;;;;;;;6.73;4.77;;;;;;;29.83;44.54;98330.59;6976853;28;20198;-80
2022/06/30 06:09:54;;;;;;;5.00;4.60;;;;;;;29.96;43.62;98318.38;6977896;28;20301;-80
2022/06/30 06:13:16;;;;;;;4.97;4.57;;;;;;;30.81;42.09;98336.09;6977359;28;20703;-80
2022/06/30 06:16:37;;;;;;;6.73;4.40;;;;;;;30.90;41.74;98326.47;6976055;28;20208;-80
2022/06/30 06:19:59;;;;;;;5.53;5.00;;;;;;;29.98;43.58;98321.63;6965708;28;20256;-80
2022/06/30 06:23:21;;;;;;;6.50;5.40;;;;;;;30.07;44.13;98332.69;6948919;28;20240;-81
2022/06/30 06:26:43;;;;;;;6.50;4.80;;;;;;;30.33;44.73;98322.09;6962499;28;20203;-80
2022/06/30 06:30:07;;;;;;;5.20;4.70;;;;;;;30.44;42.33;98309.38;6961674;28;20700;-80
2022/06/30 06:33:29;;;;;;;7.83;5.20;;;;;;;29.12;46.91;98317.09;6972763;28;20223;-81
2022/06/30 06:36:50;;;;;;;6.80;4.70;;;;;;;30.18;44.52;98287.41;6976251;28;20212;-80
2022/06/30 06:40:13;;;;;;;5.90;4.90;;;;;;;30.69;43.94;98305.47;6976366;28;20578;-80
2022/06/30 06:43:36;;;;;;;7.30;4.57;;;;;;;29.15;45.85;98299.78;6976350;28;20247;-80
2022/06/30 06:46:58;;;;;;;6.50;4.90;;;;;;;29.68;45.04;98300.69;6952918;28;20212;-80
2022/06/30 06:50:19;;;;;;;5.00;4.50;;;;;;;30.31;43.36;98285.47;6971661;28;20226;-81
2022/06/30 06:53:41;;;;;;;4.97;4.47;;;;;;;31.57;41.18;98293.19;6976410;28;20229;-80
2022/06/30 06:57:03;;;;;;;5.73;5.03;;;;;;;30.20;43.80;98303.75;6976960;28;20345;-81
2022/06/30 07:00:26;;;;;;;6.00;4.77;;;;;;;29.56;45.79;98295.06;6959704;28;20233;-80
2022/06/30 07:03:47;;;;;;;9.60;4.63;;;;;;;31.46;42.48;98291.22;6970394;28;20337;-80
2022/06/30 07:07:09;;;;;;;5.50;4.20;;;;;;;31.69;41.56;98300.69;6979744;28;20277;-81
2022/06/30 07:10:30;;;;;;;6.30;4.70;;;;;;;32.26;39.75;98285.22;6984515;28;20208;-78
2022/06/30 07:13:52;;;;;;;5.23;4.33;;;;;;;32.70;39.14;98297.94;6980604;28;20306;-79
2022/06/30 07:17:15;;;;;;;6.03;4.40;;;;;;;32.86;38.69;98283.97;6978773;28;20333;-79
2022/06/30 07:20:37;;;;;;;5.97;4.43;;;;;;;32.82;40.01;98292.28;6978417;28;20598;-78
2022/06/30 07:23:58;;;;;;;7.03;4.43;;;;;;;33.55;38.14;98290.38;6978726;28;20237;-79
2022/06/30 07:27:20;;;;;;;6.37;4.40;;;;;;;33.86;35.49;98278.25;6966569;28;20644;-79
2022/06/30 07:30:41;;;;;;;6.87;4.30;;;;;;;32.68;39.23;98265.94;6978749;28;20276;-78
2022/06/30 07:34:04;;;;;;;4.50;4.00;;;;;;;33.37;36.62;98285.59;6987508;28;20224;-79
2022/06/30 07:37:26;;;;;;;5.57;4.57;;;;;;;32.33;39.60;98284.59;6991027;28;20210;-78
2022/06/30 07:40:47;;;;;;;5.13;4.20;;;;;;;32.73;38.58;98286.00;6973272;28;20211;-79
2022/06/30 07:44:09;;;;;;;6.53;4.33;;;;;;;33.36;37.68;98281.97;6969110;28;20254;-81
2022/06/30 07:47:30;;;;;;;4.87;3.90;;;;;;;33.50;36.82;98290.66;6973149;28;20686;-82
2022/06/30 07:50:53;;;;;;;7.60;3.70;;;;;;;33.56;35.73;98291.19;6981698;28;20209;-80
2022/06/30 07:54:15;;;;;;;4.37;3.97;;;;;;;33.77;34.90;98277.66;6980675;28;20723;-80
2022/06/30 07:57:37;;;;;;;4.63;3.70;;;;;;;34.19;35.39;98292.50;6978842;28;20215;-80
2022/06/30 08:00:59;;;;;;;7.57;3.53;;;;;;;33.81;35.72;98276.59;6961717;28;20304;-82
2022/06/30 08:04:20;;;;;;;4.97;3.87;;;;;;;33.58;35.62;98286.84;6977174;28;20805;-80
2022/06/30 08:07:43;;;;;;;4.80;4.23;;;;;;;34.57;34.33;98284.03;6975007;28;20254;-80
2022/06/30 08:11:05;;;;;;;7.10;4.10;;;;;;;34.79;34.60;98277.63;6952411;28;20222;-80
2022/06/30 08:14:27;;;;;;;4.57;4.07;;;;;;;33.97;33.82;98284.88;6976091;28;20228;-80
2022/06/30 08:17:49;;;;;;;6.57;3.70;;;;;;;33.37;34.13;98272.41;6978768;28;20209;-80
2022/06/30 08:21:10;;;;;;;4.13;3.40;;;;;;;33.05;35.23;98247.69;6970781;28;20210;-80
2022/06/30 08:24:33;;;;;;;5.07;4.00;;;;;;;32.51;36.90;98261.56;6952280;28;20253;-79
2022/06/30 08:27:55;;;;;;;6.00;3.90;;;;;;;32.35;36.88;98263.53;6950919;28;20209;-80
2022/06/30 08:31:16;;;;;;;5.07;3.63;;;;;;;32.99;36.00;98246.38;6963273;28;20210;-80
2022/06/30 08:34:38;;;;;;;4.80;4.10;;;;;;;33.42;34.96;98227.41;6983854;28;20251;-79
2022/06/30 08:38:00;;;;;;;3.83;3.40;;;;;;;34.65;32.78;98238.94;6987622;28;20233;-79
2022/06/30 08:45:14;;;;;;;5.40;3.47;;;;;;;36.00;30.21;98252.50;6981771;28;20210;-80
2022/06/30 08:48:36;;;;;;;5.73;3.70;;;;;;;35.80;30.55;98250.25;6978480;28;20198;-79
2022/06/30 08:51:59;;;;;;;5.37;3.40;;;;;;;34.93;30.81;98208.59;6979778;28;20693;-79
2022/06/30 08:55:25;;;;;;;3.97;3.23;;;;;;;34.65;30.66;98247.34;6977441;28;20542;-81
2022/06/30 08:58:49;;;;;;;5.43;3.30;;;;;;;35.57;29.84;98247.56;6975660;28;20673;-80
2022/06/30 09:02:10;;;;;;;7.03;3.53;;;;;;;35.96;30.54;98234.78;6976030;28;20307;-80
2022/06/30 09:05:32;;;;;;;4.83;3.77;;;;;;;35.51;30.08;98240.66;6976129;28;20671;-80
2022/06/30 09:08:54;;;;;;;4.83;3.50;;;;;;;36.07;29.56;98232.91;6957717;28;20208;-80
2022/06/30 09:12:16;;;;;;;4.03;3.10;;;;;;;35.98;29.74;98232.44;6948204;28;20228;-80
2022/06/30 09:15:40;;;;;;;3.93;3.50;;;;;;;36.43;27.78;98220.84;6948997;28;20206;-81
2022/06/30 09:19:02;;;;;;;3.93;3.20;;;;;;;36.24;29.35;98211.84;6968407;28;20233;-81
2022/06/30 09:22:25;;;;;;;4.10;3.13;;;;;;;36.01;28.37;98211.22;6975765;28;20226;-80
2022/06/30 09:25:49;;;;;;;4.07;3.30;;;;;;;34.92;31.16;98225.78;6975949;28;20230;-79
2022/06/30 09:29:13;;;;;;;4.43;3.40;;;;;;;33.95;31.80;98218.09;6974796;28;20288;-80
2022/06/30 09:32:46;;;;;;;4.13;3.10;;;;;;;35.58;29.11;98223.09;6975655;28;20226;-80
2022/06/30 09:36:22;;;;;;;4.70;3.10;;;;;;;36.10;27.70;98197.66;6973587;28;20236;-82
2022/06/30 09:39:44;;;;;;;5.03;3.33;;;;;;;34.77;30.24;98213.56;6969626;28;20300;-80
2022/06/30 09:43:06;;;;;;;6.10;3.50;;;;;;;34.42;30.75;98195.38;6975158;28;20283;-78
2022/06/30 09:46:28;;;;;;;4.40;3.07;;;;;;;34.92;30.44;98209.78;6975525;28;20205;-80
2022/06/30 09:49:53;;;;;;;5.50;3.40;;;;;;;35.13;30.17;98221.28;6971194;28;20233;-82
2022/06/30 09:53:16;;;;;;;4.00;3.00;;;;;;;36.43;27.96;98200.41;6962306;28;20226;-81
2022/06/30 09:56:38;;;;;;;4.57;3.60;;;;;;;36.84;27.98;98208.34;6976009;28;20210;-81
2022/06/30 10:00:01;;;;;;;7.77;3.13;;;;;;;36.70;28.12;98211.06;6975747;28;20235;-81
2022/06/30 10:03:22;;;;;;;4.90;3.30;;;;;;;37.45;25.96;98208.34;6976594;28;20756;-80
2022/06/30 10:06:46;;;;;;;3.43;2.73;;;;;;;36.59;27.08;98190.47;6975787;28;20235;-78
2022/06/30 10:10:10;;;;;;;5.63;3.03;;;;;;;35.89;27.99;98192.63;6956301;28;20245;-80
2022/06/30 10:13:35;;;;;;;8.03;3.40;;;;;;;35.95;27.96;98170.66;6947971;28;20707;-78
2022/06/30 10:16:57;;;;;;;4.10;3.17;;;;;;;36.78;26.08;98181.81;6947897;28;20210;-80
2022/06/30 10:20:19;;;;;;;6.37;3.17;;;;;;;37.29;26.59;98178.91;6946066;28;20225;-79
2022/06/30 10:23:42;;;;;;;3.10;2.70;;;;;;;37.73;26.24;98179.50;6948148;28;20223;-79
2022/06/30 10:27:14;;;;;;;6.10;2.80;;;;;;;37.49;25.91;98185.84;6958147;28;20214;-77
2022/06/30 10:30:43;;;;;;;7.43;4.07;;;;;;;36.89;25.69;98165.81;6971942;28;20254;-79
2022/06/30 10:34:10;;;;;;;3.50;2.90;;;;;;;35.42;27.43;98183.25;6974780;28;20218;-81
2022/06/30 10:37:37;;;;;;;4.60;2.83;;;;;;;35.13;27.90;98173.63;6974975;28;20235;-81
2022/06/30 10:41:07;;;;;;;5.17;2.73;;;;;;;35.13;26.89;98186.88;6976673;28;20241;-80
2022/06/30 10:44:29;;;;;;;6.40;2.87;;;;;;;36.38;26.11;98179.06;6977646;28;20229;-80
2022/06/30 10:47:57;;;;;;;3.03;2.73;;;;;;;36.95;26.06;98164.25;6964845;28;20215;-80
2022/06/30 10:51:18;;;;;;;4.57;3.23;;;;;;;35.11;27.55;98169.59;6953237;28;20187;-78
2022/06/30 10:54:42;;;;;;;4.60;2.90;;;;;;;35.34;28.22;98148.72;6962898;28;20288;-80
2022/06/30 10:58:09;;;;;;;4.20;3.20;;;;;;;36.22;26.73;98155.28;6979073;28;20252;-80
2022/06/30 11:01:30;;;;;;;3.37;2.63;;;;;;;36.91;26.24;98162.63;6979367;28;20214;-79
2022/06/30 11:05:21;;;;;;;3.07;2.70;;;;;;;34.26;28.76;98159.09;6979997;28;20210;-80
2022/06/30 11:08:50;;;;;;;4.97;3.27;;;;;;;35.89;27.56;98153.34;6979735;28;20194;-79
2022/06/30 11:12:14;;;;;;;5.77;3.07;;;;;;;36.80;25.44;98145.72;6972075;28;20218;-77
2022/06/30 11:15:54;;;;;;;4.93;3.03;;;;;;;35.54;27.00;98141.72;6980921;28;20549;-80
2022/06/30 11:19:17;;;;;;;5.80;3.20;;;;;;;36.44;26.66;98128.97;6980509;28;20226;-84
2022/06/30 11:22:39;;;;;;;6.70;3.40;;;;;;;33.97;29.38;98133.78;6980818;28;20696;-81
2022/06/30 11:29:40;;;;;;;3.93;2.90;;;;;;;36.12;26.51;98108.22;6965927;28;20194;-83
2022/06/30 11:33:03;;;;;;;4.83;2.80;;;;;;;37.42;24.85;98101.44;6977100;28;20593;-85
2022/06/30 11:36:24;;;;;;;3.20;2.90;;;;;;;37.23;24.31;98105.38;6980555;28;20195;-84
2022/06/30 11:39:46;;;;;;;4.20;3.20;;;;;;;36.91;24.88;98114.84;6981124;28;20233;-84
2022/06/30 11:43:20;;;;;;;4.27;3.20;;;;;;;35.14;28.10;98099.56;6986304;28;20239;-82
2022/06/30 11:46:50;;;;;;;6.60;3.43;;;;;;;35.95;27.14;98118.13;6958002;28;20210;-83
2022/06/30 11:50:13;;;;;;;6.63;3.40;;;;;;;35.09;27.39;98119.56;6952958;28;20222;-83
2022/06/30 11:53:35;;;;;;;3.57;3.27;;;;;;;36.34;25.69;98045.44;6953916;28;20232;-83
2022/06/30 11:56:57;;;;;;;4.47;3.20;;;;;;;36.54;26.41;98105.78;6974828;28;20657;-82
2022/06/30 12:00:21;;;;;;;7.23;3.40;;;;;;;36.92;25.75;98106.03;6979755;28;20233;-82
2022/06/30 12:03:43;;;;;;;6.00;3.17;;;;;;;36.49;25.64;98097.72;6980049;28;20226;-85
2022/06/30 12:07:07;;;;;;;4.57;3.50;;;;;;;35.93;26.91;98103.69;6980198;28;20226;-84
2022/06/30 12:10:28;;;;;;;7.40;2.90;;;;;;;36.60;25.07;98102.19;6980358;28;20242;-83
2022/06/30 12:13:50;;;;;;;5.90;3.63;;;;;;;36.82;25.45;98101.16;6979185;28;20233;-84
2022/06/30 12:17:13;;;;;;;3.60;3.10;;;;;;;37.11;25.15;98079.59;6980967;28;20210;-84
2022/06/30 12:20:35;;;;;;;3.73;3.20;;;;;;;34.81;27.71;98065.94;6980728;28;20226;-82
2022/06/30 12:23:58;;;;;;;5.17;3.13;;;;;;;35.65;27.11;98086.53;6980413;28;20230;-80
2022/06/30 12:27:26;;;;;;;3.43;3.10;;;;;;;36.98;25.25;98089.56;6979402;28;20234;-82
2022/06/30 12:30:51;;;;;;;5.60;3.23;;;;;;;37.10;23.61;98084.44;6952431;28;20194;-83
2022/06/30 12:34:15;;;;;;;5.37;3.00;;;;;;;38.18;22.82;98099.94;6972103;28;20237;-83
2022/06/30 12:37:39;;;;;;;4.17;2.80;;;;;;;37.89;22.68;98087.84;6970377;28;20211;-84
2022/06/30 12:41:09;;;;;;;5.20;3.30;;;;;;;37.88;22.97;98097.50;6961666;28;20323;-83
2022/06/30 12:44:32;;;;;;;4.33;3.20;;;;;;;37.81;23.30;98100.31;6965616;28;20253;-83
2022/06/30 12:47:53;;;;;;;3.70;2.90;;;;;;;38.01;24.14;98100.78;6980554;28;20217;-83
2022/06/30 12:51:17;;;;;;;3.40;2.70;;;;;;;38.17;23.07;98093.50;6965627;28;20210;-82
2022/06/30 12:54:50;;;;;;;5.70;3.00;;;;;;;38.74;21.89;98085.78;6950893;28;20258;-81
2022/06/30 12:58:14;;;;;;;4.13;2.90;;;;;;;38.20;22.08;98078.59;6952863;28;20292;-84
2022/06/30 13:01:38;;;;;;;5.57;3.03;;;;;;;39.20;21.73;98083.63;6951902;28;20308;-83
2022/06/30 13:04:59;;;;;;;4.27;3.10;;;;;;;37.57;22.86;98083.38;6951194;28;20695;-82
2022/06/30 13:08:21;;;;;;;4.33;2.90;;;;;;;38.90;22.79;98080.56;6951016;28;20292;-82
2022/06/30 13:11:46;;;;;;;6.77;3.30;;;;;;;38.60;22.10;98068.94;6951076;28;20206;-81
2022/06/30 13:15:10;;;;;;;5.03;3.30;;;;;;;38.45;23.18;98068.16;6963975;28;20221;-82
2022/06/30 13:18:32;;;;;;;4.20;2.77;;;;;;;38.54;23.01;98079.81;6970797;28;20258;-82
2022/06/30 13:21:54;;;;;;;6.43;3.23;;;;;;;38.30;22.50;98071.34;6979242;28;20251;-83
2022/06/30 13:25:15;;;;;;;4.50;3.03;;;;;;;38.87;21.94;98078.53;6979806;28;20211;-83
2022/06/30 13:28:37;;;;;;;4.97;2.73;;;;;;;38.17;22.27;97975.22;6978253;28;20214;-83
2022/06/30 13:32:00;;;;;;;6.73;2.97;;;;;;;37.07;23.05;98064.72;6952792;28;20697;-82
2022/06/30 13:35:22;;;;;;;3.60;2.80;;;;;;;38.43;23.33;98055.69;6951005;28;20199;-82
2022/06/30 13:38:43;;;;;;;3.43;3.13;;;;;;;37.76;22.67;98047.22;6962637;28;20202;-83
2022/06/30 13:42:05;;;;;;;4.70;2.83;;;;;;;38.61;22.34;98028.28;6972610;28;20238;-82
2022/06/30 13:45:27;;;;;;;7.00;2.90;;;;;;;39.08;21.49;98047.44;6978271;28;20212;-82
2022/06/30 13:48:50;;;;;;;3.37;2.70;;;;;;;39.16;21.52;98034.91;6979079;28;20219;-83
2022/06/30 13:52:12;;;;;;;4.27;3.17;;;;;;;38.94;21.49;98030.56;6979715;28;20311;-83
2022/06/30 13:55:33;;;;;;;6.00;2.93;;;;;;;39.06;21.85;98030.09;6976560;28;20240;-82
2022/06/30 13:58:55;;;;;;;4.40;2.73;;;;;;;38.98;22.14;98028.53;6979528;28;20253;-82
2022/06/30 14:02:17;;;;;;;2.93;2.70;;;;;;;39.35;22.24;98032.41;6979929;28;20284;-82
2022/06/30 14:05:39;;;;;;;4.67;2.90;;;;;;;38.87;22.08;98024.97;6991003;28;20205;-82
2022/06/30 14:09:01;;;;;;;3.70;2.63;;;;;;;38.21;23.19;98021.09;6997915;28;20227;-82
2022/06/30 14:12:23;;;;;;;3.80;2.67;;;;;;;37.63;22.26;98028.31;6989590;28;20764;-81
2022/06/30 14:15:44;;;;;;;4.07;3.03;;;;;;;37.91;23.47;98014.25;6991634;28;20228;-82
2022/06/30 14:19:06;;;;;;;6.37;2.80;;;;;;;38.66;22.43;98008.91;6999467;28;20644;-83
2022/06/30 14:22:29;;;;;;;3.23;2.80;;;;;;;38.56;22.24;98020.22;6999952;28;20223;-83
2022/06/30 14:25:51;;;;;;;6.87;3.10;;;;;;;37.90;23.38;97988.09;6979907;28;20345;-83
2022/06/30 14:29:13;;;;;;;4.40;3.30;;;;;;;38.10;23.27;97986.53;6983277;28;20246;-82
2022/06/30 14:32:34;;;;;;;3.43;3.13;;;;;;;37.49;23.75;97997.34;6983954;28;20286;-82
2022/06/30 14:35:56;;;;;;;5.17;3.00;;;;;;;37.35;24.19;98000.94;6983546;28;20199;-82
2022/06/30 14:39:20;;;;;;;3.00;2.70;;;;;;;37.87;24.29;98003.00;6983367;28;20216;-81
2022/06/30 14:42:47;;;;;;;4.53;3.10;;;;;;;37.14;25.24;97961.53;6978579;28;20270;-82
2022/06/30 14:46:09;;;;;;;5.03;3.23;;;;;;;37.34;24.52;98006.97;6986183;28;20190;-80
2022/06/30 14:49:30;;;;;;;5.90;3.43;;;;;;;37.21;25.34;98005.75;6988780;28;20216;-83
2022/06/30 14:52:52;;;;;;;3.43;2.80;;;;;;;37.36;24.72;98012.97;6981627;28;20252;-82
2022/06/30 14:56:15;;;;;;;4.57;2.90;;;;;;;37.15;25.35;98021.38;6981488;28;20234;-83
2022/06/30 14:59:37;;;;;;;4.43;2.90;;;;;;;36.77;26.67;98005.97;6974733;28;20275;-82
2022/06/30 15:02:58;;;;;;;4.40;3.10;;;;;;;36.66;26.61;98007.16;6980663;28;20224;-83
2022/06/30 15:06:20;;;;;;;3.63;3.07;;;;;;;36.95;27.10;98012.47;6980429;28;20210;-81
2022/06/30 15:09:42;;;;;;;6.63;3.33;;;;;;;36.42;28.59;98038.69;6981216;28;20206;-83
2022/06/30 15:13:05;;;;;;;3.37;3.07;;;;;;;36.10;29.42;98032.03;6980412;28;20230;-82
2022/06/30 15:16:26;;;;;;;8.00;3.47;;;;;;;36.17;30.66;98021.69;6959582;28;20204;-82
2022/06/30 15:19:48;;;;;;;4.70;3.20;;;;;;;35.34;30.44;97972.06;6960157;28;20226;-82
2022/06/30 15:26:50;;;;;;;4.53;3.40;;;;;;;35.60;31.40;98035.59;6966798;28;20288;-81
2022/06/30 15:30:13;;;;;;;3.67;3.20;;;;;;;35.39;31.92;98039.03;6966308;28;20664;-81
2022/06/30 15:33:35;;;;;;;5.73;3.43;;;;;;;35.22;32.40;98036.81;6977567;28;20601;-81
2022/06/30 15:36:58;;;;;;;4.67;3.33;;;;;;;34.79;32.50;98034.69;6981124;28;20221;-81
2022/06/30 15:40:19;;;;;;;4.27;3.50;;;;;;;34.52;32.87;98049.09;6988768;28;20710;-81
2022/06/30 15:43:43;;;;;;;6.10;3.57;;;;;;;34.67;33.49;98057.31;7002307;28;20240;-83
2022/06/30 15:47:07;;;;;;;7.00;3.70;;;;;;;34.51;36.79;98078.28;6989800;28;20217;-81
2022/06/30 15:50:29;;;;;;;6.83;3.93;;;;;;;33.85;36.98;98089.22;6988838;28;20217;-83
2022/06/30 15:53:51;;;;;;;10.03;4.63;;;;;;;33.05;41.35;98097.66;6984844;28;20311;-79
2022/06/30 15:57:12;;;;;;;8.53;4.17;;;;;;;32.84;42.20;98086.03;6980030;28;20276;-81
2022/06/30 16:00:34;;;;;;;8.23;5.03;;;;;;;31.39;46.62;98119.09;6960159;28;20592;-80
2022/06/30 16:03:58;;;;;;;7.93;5.07;;;;;;;30.40;47.36;98102.53;6956534;28;20230;-81
2022/06/30 16:07:23;;;;;;;10.07;5.50;;;;;;;29.08;50.21;98092.06;6953715;28;20605;-81
2022/06/30 16:10:45;;;;;;;7.40;5.37;;;;;;;29.69;52.82;98091.09;6954708;28;20620;-81
2022/06/30 16:14:07;;;;;;;6.90;5.10;;;;;;;30.42;50.60;98084.34;6953763;28;20295;-81
2022/06/30 16:17:29;;;;;;;7.43;5.37;;;;;;;29.98;51.69;98060.28;6954916;28;20206;-82